createdAt,value
2023-12-31T00:01:31.056Z,21.6
2023-12-31T00:07:01.763Z,21.6
2023-12-31T00:12:32.223Z,21.6
2023-12-31T00:18:02.786Z,21.6
2023-12-31T00:23:33.328Z,21.6
2023-12-31T00:34:34.252Z,21.6
2023-12-31T00:40:04.951Z,21.7
2023-12-31T00:45:35.326Z,21.6
2023-12-31T00:51:05.825Z,21.7
2023-12-31T00:56:36.409Z,21.7
2023-12-31T01:02:06.904Z,21.7
2023-12-31T01:07:36.542Z,21.7
2023-12-31T01:13:07.073Z,21.7
2023-12-31T01:18:37.475Z,21.7
2023-12-31T01:24:06.926Z,21.7
2023-12-31T01:29:37.398Z,21.7
2023-12-31T01:35:07.877Z,21.7
2023-12-31T01:40:38.551Z,21.7
2023-12-31T01:46:08.980Z,21.7
2023-12-31T01:51:39.436Z,21.7
2023-12-31T01:57:10.005Z,21.7
2023-12-31T02:02:40.601Z,21.7
2023-12-31T02:08:10.084Z,21.7
2023-12-31T02:13:40.746Z,21.7
2023-12-31T02:19:11.073Z,21.6
2023-12-31T02:24:40.505Z,21.7
2023-12-31T02:30:11.071Z,21.7
2023-12-31T02:46:42.563Z,21.7
2023-12-31T02:52:12.060Z,21.7
2023-12-31T02:57:42.562Z,21.7
2023-12-31T03:03:13.086Z,21.7
2023-12-31T03:08:42.505Z,21.7
2023-12-31T03:14:12.992Z,21.7
2023-12-31T03:19:42.529Z,21.7
2023-12-31T03:25:13.044Z,21.7
2023-12-31T03:30:43.466Z,21.7
2023-12-31T03:36:13.893Z,21.7
2023-12-31T03:41:44.511Z,21.7
2023-12-31T03:47:15.026Z,21.7
2023-12-31T03:52:45.646Z,21.7
2023-12-31T03:58:16.126Z,21.7
2023-12-31T04:03:46.574Z,21.7
2023-12-31T04:09:16.025Z,21.7
2023-12-31T04:14:46.472Z,21.8
2023-12-31T04:20:16.985Z,21.8
2023-12-31T04:25:46.541Z,21.8
2023-12-31T04:31:16.974Z,21.8
2023-12-31T04:36:47.437Z,21.8
2023-12-31T04:42:16.906Z,21.8
2023-12-31T04:47:47.404Z,21.8
2023-12-31T04:53:17.843Z,21.8
2023-12-31T04:58:48.521Z,21.8
2023-12-31T05:04:18.964Z,21.8
2023-12-31T05:09:49.510Z,21.7
2023-12-31T05:15:19.996Z,21.8
2023-12-31T05:20:50.489Z,21.8
2023-12-31T05:26:19.979Z,21.8
2023-12-31T05:31:50.478Z,21.8
2023-12-31T05:37:20.963Z,21.8
2023-12-31T05:42:50.392Z,21.8
2023-12-31T05:48:21.127Z,21.8
2023-12-31T05:53:51.348Z,21.8
2023-12-31T05:59:21.952Z,21.8
2023-12-31T06:04:52.475Z,21.8
2023-12-31T06:10:22.940Z,21.8
2023-12-31T06:15:53.540Z,21.8
2023-12-31T06:21:23.980Z,21.7
2023-12-31T06:26:54.591Z,21.5
2023-12-31T06:32:25.374Z,21.4
2023-12-31T06:37:55.701Z,21.4
2023-12-31T06:43:25.188Z,21.4
2023-12-31T06:48:55.828Z,21.3
2023-12-31T06:54:26.245Z,21.3
2023-12-31T06:59:56.699Z,21.3
2023-12-31T07:05:27.334Z,21.3
2023-12-31T07:10:57.995Z,21.2
2023-12-31T07:16:28.374Z,21.2
2023-12-31T07:21:58.949Z,21.3
2023-12-31T07:27:29.405Z,21.3
2023-12-31T07:32:59.942Z,21.3
2023-12-31T07:38:30.608Z,21.3
2023-12-31T07:44:01.237Z,21.3
2023-12-31T07:49:31.605Z,21.3
2023-12-31T07:55:02.272Z,21.4
2023-12-31T08:00:31.888Z,21.4
2023-12-31T08:06:02.480Z,21.4
2023-12-31T08:11:31.866Z,21.3
2023-12-31T08:17:02.400Z,21.4
2023-12-31T08:22:32.884Z,21.4
2023-12-31T08:28:02.317Z,21.3
2023-12-31T08:33:32.817Z,21.3
2023-12-31T08:39:02.276Z,21.3
2023-12-31T08:44:32.746Z,21.3
2023-12-31T08:50:03.211Z,21.4
2023-12-31T09:01:03.239Z,21.3
2023-12-31T09:06:33.896Z,21.3
2023-12-31T09:12:03.169Z,21.4
2023-12-31T09:17:36.027Z,21.2
2023-12-31T09:23:04.435Z,21.2
2023-12-31T09:28:33.586Z,21.1
2023-12-31T09:34:04.189Z,21.1
2023-12-31T09:39:34.570Z,21.1
2023-12-31T09:45:04.059Z,21.1
2023-12-31T09:50:34.521Z,21.1
2023-12-31T09:56:05.050Z,21.1
2023-12-31T10:01:34.570Z,21.1
2023-12-31T10:07:04.959Z,21
2023-12-31T10:12:34.464Z,21
2023-12-31T10:18:07.504Z,21
2023-12-31T10:23:35.443Z,21
2023-12-31T10:29:05.080Z,21
2023-12-31T10:34:35.719Z,21
2023-12-31T10:40:05.974Z,21
2023-12-31T10:45:36.575Z,21
2023-12-31T10:51:07.155Z,21
2023-12-31T10:56:37.626Z,21
2023-12-31T11:02:07.123Z,21
2023-12-31T11:13:07.056Z,21
2023-12-31T11:18:37.635Z,21
2023-12-31T11:24:07.999Z,21
2023-12-31T11:29:38.502Z,20.9
2023-12-31T11:35:09.079Z,20.9
2023-12-31T11:40:39.586Z,21
2023-12-31T11:46:10.049Z,20.9
2023-12-31T11:51:40.698Z,20.9
2023-12-31T11:57:11.178Z,20.9
2023-12-31T12:02:41.783Z,20.9
2023-12-31T12:08:12.415Z,20.9
2023-12-31T12:13:42.773Z,20.9
2023-12-31T12:19:12.250Z,20.9
2023-12-31T12:24:42.720Z,20.9
2023-12-31T12:30:12.238Z,20.9
2023-12-31T12:35:42.677Z,20.9
2023-12-31T12:41:13.154Z,20.9
2023-12-31T12:46:42.686Z,20.9
2023-12-31T12:52:13.131Z,20.9
2023-12-31T12:57:43.609Z,20.8
2023-12-31T13:03:13.142Z,20.9
2023-12-31T13:08:43.573Z,20.8
2023-12-31T13:14:14.062Z,20.9
2023-12-31T13:19:43.599Z,20.8
2023-12-31T13:25:14.028Z,20.8
2023-12-31T13:30:44.575Z,20.8
2023-12-31T13:36:15.085Z,20.8
2023-12-31T13:41:45.567Z,20.8
2023-12-31T13:47:16.148Z,20.8
2023-12-31T13:52:45.527Z,20.8
2023-12-31T13:58:16.003Z,20.9
2023-12-31T14:03:46.495Z,20.8
2023-12-31T14:09:17.089Z,20.9
2023-12-31T14:14:46.571Z,20.9
2023-12-31T14:20:17.113Z,20.9
2023-12-31T14:25:46.552Z,21
2023-12-31T14:31:17.030Z,21
2023-12-31T14:36:47.503Z,21
2023-12-31T14:42:16.992Z,21
2023-12-31T14:47:47.685Z,21.1
2023-12-31T14:53:17.001Z,21.1
2023-12-31T14:58:47.555Z,21.1
2023-12-31T15:04:17.892Z,21.1
2023-12-31T15:09:47.384Z,21.1
2023-12-31T15:15:17.895Z,21.1
2023-12-31T15:20:48.402Z,21.1
2023-12-31T15:26:18.956Z,21.1
2023-12-31T15:37:18.924Z,21.1
2023-12-31T15:42:49.450Z,21.1
2023-12-31T15:48:19.976Z,21.3
2023-12-31T15:53:50.425Z,21.3
2023-12-31T15:59:20.897Z,21.4
2023-12-31T16:04:51.424Z,21.4
2023-12-31T16:10:20.919Z,21.4
2023-12-31T16:15:51.390Z,21.4
2023-12-31T16:21:20.865Z,21.4
2023-12-31T16:26:51.342Z,21.4
2023-12-31T16:32:21.809Z,21.4
2023-12-31T16:37:52.334Z,21.4
2023-12-31T16:43:23.246Z,21.3
2023-12-31T16:48:53.425Z,21.2
2023-12-31T16:54:24.045Z,21.2
2023-12-31T16:59:54.501Z,21.2
2023-12-31T17:05:25.098Z,21.2
2023-12-31T17:10:55.640Z,21.2
2023-12-31T17:16:26.205Z,21.1
2023-12-31T17:21:56.691Z,21.2
2023-12-31T17:27:26.140Z,21.2
2023-12-31T17:32:56.674Z,21.2
2023-12-31T17:38:27.118Z,21.2
2023-12-31T17:43:57.784Z,21.2
2023-12-31T17:49:28.188Z,21.2
2023-12-31T17:54:58.793Z,21.2
2023-12-31T18:00:29.370Z,21.2
2023-12-31T18:05:58.865Z,21.2
2023-12-31T18:11:29.300Z,21.2
2023-12-31T18:16:59.955Z,21.2
2023-12-31T18:22:29.405Z,21.2
2023-12-31T18:27:59.800Z,21.2
2023-12-31T18:33:30.292Z,21.4
2023-12-31T18:38:59.759Z,21.4
2023-12-31T18:44:30.217Z,21.4
2023-12-31T18:50:00.760Z,21.3
2023-12-31T18:55:30.650Z,21.2
2023-12-31T19:01:00.799Z,21.2
2023-12-31T19:06:31.254Z,21.2
2023-12-31T19:12:00.732Z,21.2
2023-12-31T19:17:31.399Z,21.2
2023-12-31T19:23:01.812Z,21.2
2023-12-31T19:28:32.340Z,21.2
2023-12-31T19:39:36.955Z,21.2
2023-12-31T19:45:03.940Z,21.2
2023-12-31T19:50:34.382Z,21.2
2023-12-31T19:56:05.034Z,21.2
2023-12-31T20:01:35.485Z,21.2
2023-12-31T20:07:05.929Z,21.2
2023-12-31T20:12:36.588Z,21.2
2023-12-31T20:18:07.123Z,21.2
2023-12-31T20:23:37.567Z,21.2
2023-12-31T20:29:07.149Z,21.2
2023-12-31T20:34:37.537Z,21.2
2023-12-31T20:40:08.016Z,21.2
2023-12-31T20:51:09.044Z,21.2
2023-12-31T20:56:39.512Z,21.2
2023-12-31T21:02:10.142Z,21.2
2023-12-31T21:07:40.692Z,21.2
2023-12-31T21:13:11.106Z,21.2
2023-12-31T21:18:42.069Z,21.2
2023-12-31T21:24:12.251Z,21.2
2023-12-31T21:29:42.730Z,21.2
2023-12-31T21:35:12.321Z,21.2
2023-12-31T21:40:42.816Z,21.2
2023-12-31T21:46:13.313Z,21.2
2023-12-31T21:51:43.780Z,21.2
2023-12-31T21:57:14.328Z,21.2
2023-12-31T22:02:43.809Z,21.2
2023-12-31T22:08:14.260Z,21.2
2023-12-31T22:13:44.760Z,21.2
2023-12-31T22:19:14.336Z,21.2
2023-12-31T22:24:44.696Z,21.2
2023-12-31T22:30:15.260Z,21.2
2023-12-31T22:35:45.769Z,21.2
2023-12-31T22:41:16.273Z,21.2
2023-12-31T22:46:46.790Z,21.2
2023-12-31T22:52:17.326Z,21.2
2023-12-31T22:57:47.809Z,21.2
2023-12-31T23:03:18.321Z,21.2
2023-12-31T23:08:47.793Z,21.2
2023-12-31T23:14:18.255Z,21.1
2023-12-31T23:19:47.807Z,21.2
2023-12-31T23:25:18.224Z,21.1
2023-12-31T23:30:48.747Z,21.1
2023-12-31T23:36:18.208Z,21.1
2023-12-31T23:42:54.780Z,21.1
2023-12-31T23:48:25.362Z,21.1
2023-12-31T23:53:54.738Z,21.1
2023-12-31T23:59:25.214Z,21.1
